sensor_id;sensor_type;location;lat;lon;timestamp;temperature;humidity
21214;DHT22;10764;50.850;2.904;2023-07-30T00:00:07;23.80;55.30
21214;DHT22;10764;50.850;2.904;2023-07-30T00:02:37;23.90;55.30
21214;DHT22;10764;50.850;2.904;2023-07-30T00:05:04;23.70;55.40
21214;DHT22;10764;50.850;2.904;2023-07-30T00:07:32;23.90;55.40
21214;DHT22;10764;50.850;2.904;2023-07-30T00:09:59;23.60;55.20
21214;DHT22;10764;50.850;2.904;2023-07-30T00:12:25;23.60;55.40
21214;DHT22;10764;50.850;2.904;2023-07-30T00:14:52;23.50;55.40
21214;DHT22;10764;50.850;2.904;2023-07-30T00:17:19;23.60;55.50
21214;DHT22;10764;50.850;2.904;2023-07-30T00:19:46;23.70;55.50
21214;DHT22;10764;50.850;2.904;2023-07-30T00:22:12;25.00;56.20
21214;DHT22;10764;50.850;2.904;2023-07-30T00:24:39;23.40;55.50
21214;DHT22;10764;50.850;2.904;2023-07-30T00:27:06;24.00;55.60
21214;DHT22;10764;50.850;2.904;2023-07-30T00:29:33;23.90;55.70
21214;DHT22;10764;50.850;2.904;2023-07-30T00:32:00;23.60;55.60
21214;DHT22;10764;50.850;2.904;2023-07-30T00:34:26;23.50;55.60
21214;DHT22;10764;50.850;2.904;2023-07-30T00:36:53;23.60;55.60
21214;DHT22;10764;50.850;2.904;2023-07-30T00:39:20;23.80;55.70
21214;DHT22;10764;50.850;2.904;2023-07-30T00:41:47;23.60;55.60
21214;DHT22;10764;50.850;2.904;2023-07-30T00:44:14;24.50;56.10
21214;DHT22;10764;50.850;2.904;2023-07-30T00:46:41;23.60;55.70
21214;DHT22;10764;50.850;2.904;2023-07-30T00:49:07;24.00;56.10
21214;DHT22;10764;50.850;2.904;2023-07-30T00:51:34;23.60;55.80
21214;DHT22;10764;50.850;2.904;2023-07-30T00:54:02;23.70;56.00
21214;DHT22;10764;50.850;2.904;2023-07-30T00:56:30;23.70;55.90
21214;DHT22;10764;50.850;2.904;2023-07-30T00:58:57;24.30;56.10
21214;DHT22;10764;50.850;2.904;2023-07-30T01:01:24;23.70;55.90
21214;DHT22;10764;50.850;2.904;2023-07-30T01:03:54;23.70;56.00
21214;DHT22;10764;50.850;2.904;2023-07-30T01:06:23;23.20;55.90
21214;DHT22;10764;50.850;2.904;2023-07-30T01:08:50;24.00;56.20
21214;DHT22;10764;50.850;2.904;2023-07-30T01:11:20;23.80;56.00
21214;DHT22;10764;50.850;2.904;2023-07-30T01:13:47;23.70;56.20
21214;DHT22;10764;50.850;2.904;2023-07-30T01:16:14;23.70;56.00
21214;DHT22;10764;50.850;2.904;2023-07-30T01:18:41;23.80;56.10
21214;DHT22;10764;50.850;2.904;2023-07-30T01:21:08;23.60;56.20
21214;DHT22;10764;50.850;2.904;2023-07-30T01:23:35;23.90;56.30
21214;DHT22;10764;50.850;2.904;2023-07-30T01:26:09;23.60;56.00
21214;DHT22;10764;50.850;2.904;2023-07-30T01:28:42;23.70;56.10
21214;DHT22;10764;50.850;2.904;2023-07-30T01:31:14;23.50;56.00
21214;DHT22;10764;50.850;2.904;2023-07-30T01:33:42;23.50;56.00
21214;DHT22;10764;50.850;2.904;2023-07-30T01:36:12;23.80;56.20
21214;DHT22;10764;50.850;2.904;2023-07-30T01:38:40;23.70;56.20
21214;DHT22;10764;50.850;2.904;2023-07-30T01:41:08;24.20;56.60
21214;DHT22;10764;50.850;2.904;2023-07-30T01:43:36;24.60;56.80
21214;DHT22;10764;50.850;2.904;2023-07-30T01:46:03;24.30;56.80
21214;DHT22;10764;50.850;2.904;2023-07-30T01:48:30;23.70;56.50
21214;DHT22;10764;50.850;2.904;2023-07-30T01:50:56;23.70;56.40
21214;DHT22;10764;50.850;2.904;2023-07-30T01:53:23;23.90;56.50
21214;DHT22;10764;50.850;2.904;2023-07-30T01:55:50;23.70;56.50
21214;DHT22;10764;50.850;2.904;2023-07-30T01:58:17;23.70;56.40
21214;DHT22;10764;50.850;2.904;2023-07-30T02:00:44;23.50;56.40
21214;DHT22;10764;50.850;2.904;2023-07-30T02:03:11;23.80;56.50
21214;DHT22;10764;50.850;2.904;2023-07-30T02:05:39;24.40;58.40
21214;DHT22;10764;50.850;2.904;2023-07-30T02:08:06;23.60;56.70
21214;DHT22;10764;50.850;2.904;2023-07-30T02:10:33;23.90;57.40
21214;DHT22;10764;50.850;2.904;2023-07-30T02:13:00;23.70;56.50
21214;DHT22;10764;50.850;2.904;2023-07-30T02:15:27;25.80;59.10
21214;DHT22;10764;50.850;2.904;2023-07-30T02:17:54;24.20;58.10
21214;DHT22;10764;50.850;2.904;2023-07-30T02:20:23;23.80;56.90
21214;DHT22;10764;50.850;2.904;2023-07-30T02:22:51;23.50;56.60
21214;DHT22;10764;50.850;2.904;2023-07-30T02:25:19;23.60;58.30
21214;DHT22;10764;50.850;2.904;2023-07-30T02:27:47;23.60;56.70
21214;DHT22;10764;50.850;2.904;2023-07-30T02:30:14;23.50;56.60
21214;DHT22;10764;50.850;2.904;2023-07-30T02:32:41;23.30;57.20
21214;DHT22;10764;50.850;2.904;2023-07-30T02:35:08;23.40;57.70
21214;DHT22;10764;50.850;2.904;2023-07-30T02:37:36;23.70;58.60
21214;DHT22;10764;50.850;2.904;2023-07-30T02:40:03;23.60;56.90
21214;DHT22;10764;50.850;2.904;2023-07-30T02:42:31;23.60;56.70
21214;DHT22;10764;50.850;2.904;2023-07-30T02:44:58;23.70;56.70
21214;DHT22;10764;50.850;2.904;2023-07-30T02:47:26;23.80;58.90
21214;DHT22;10764;50.850;2.904;2023-07-30T02:49:54;23.60;57.70
21214;DHT22;10764;50.850;2.904;2023-07-30T02:52:20;23.30;56.80
21214;DHT22;10764;50.850;2.904;2023-07-30T02:54:47;23.50;56.60
21214;DHT22;10764;50.850;2.904;2023-07-30T02:57:14;24.50;57.20
21214;DHT22;10764;50.850;2.904;2023-07-30T02:59:42;23.70;56.80
21214;DHT22;10764;50.850;2.904;2023-07-30T03:02:09;23.70;56.70
21214;DHT22;10764;50.850;2.904;2023-07-30T03:04:36;23.90;57.00
21214;DHT22;10764;50.850;2.904;2023-07-30T03:07:04;23.70;56.70
21214;DHT22;10764;50.850;2.904;2023-07-30T03:09:31;23.70;56.70
21214;DHT22;10764;50.850;2.904;2023-07-30T03:11:59;24.30;57.00
21214;DHT22;10764;50.850;2.904;2023-07-30T03:14:26;23.80;56.70
21214;DHT22;10764;50.850;2.904;2023-07-30T03:16:53;23.60;56.70
21214;DHT22;10764;50.850;2.904;2023-07-30T03:19:20;23.60;56.80
21214;DHT22;10764;50.850;2.904;2023-07-30T03:21:47;24.60;57.20
21214;DHT22;10764;50.850;2.904;2023-07-30T03:24:13;23.80;56.90
21214;DHT22;10764;50.850;2.904;2023-07-30T03:26:40;23.30;56.60
21214;DHT22;10764;50.850;2.904;2023-07-30T03:29:07;25.20;57.70
21214;DHT22;10764;50.850;2.904;2023-07-30T03:31:34;24.00;57.00
21214;DHT22;10764;50.850;2.904;2023-07-30T03:34:02;23.40;56.80
21214;DHT22;10764;50.850;2.904;2023-07-30T03:36:29;23.70;57.00
21214;DHT22;10764;50.850;2.904;2023-07-30T03:38:56;23.40;56.90
21214;DHT22;10764;50.850;2.904;2023-07-30T03:41:24;23.70;57.10
21214;DHT22;10764;50.850;2.904;2023-07-30T03:43:52;24.40;57.30
21214;DHT22;10764;50.850;2.904;2023-07-30T03:46:19;23.70;57.00
21214;DHT22;10764;50.850;2.904;2023-07-30T03:48:47;24.00;57.10
21214;DHT22;10764;50.850;2.904;2023-07-30T03:51:14;23.70;57.10
21214;DHT22;10764;50.850;2.904;2023-07-30T03:53:41;23.70;57.10
21214;DHT22;10764;50.850;2.904;2023-07-30T03:56:09;23.60;57.00
21214;DHT22;10764;50.850;2.904;2023-07-30T03:58:36;24.70;57.50
21214;DHT22;10764;50.850;2.904;2023-07-30T04:01:03;23.60;57.00
21214;DHT22;10764;50.850;2.904;2023-07-30T04:03:29;23.80;57.10
21214;DHT22;10764;50.850;2.904;2023-07-30T04:05:56;24.40;57.40
21214;DHT22;10764;50.850;2.904;2023-07-30T04:08:23;23.60;57.00
21214;DHT22;10764;50.850;2.904;2023-07-30T04:10:50;23.80;57.10
21214;DHT22;10764;50.850;2.904;2023-07-30T04:13:17;23.60;57.10
21214;DHT22;10764;50.850;2.904;2023-07-30T04:15:47;23.30;56.80
21214;DHT22;10764;50.850;2.904;2023-07-30T04:18:14;23.60;57.00
21214;DHT22;10764;50.850;2.904;2023-07-30T04:20:43;23.60;57.00
21214;DHT22;10764;50.850;2.904;2023-07-30T04:23:10;23.30;56.90
21214;DHT22;10764;50.850;2.904;2023-07-30T04:25:37;23.80;57.20
21214;DHT22;10764;50.850;2.904;2023-07-30T04:28:04;23.20;56.80
21214;DHT22;10764;50.850;2.904;2023-07-30T04:30:31;24.40;57.50
21214;DHT22;10764;50.850;2.904;2023-07-30T04:32:58;24.40;57.40
21214;DHT22;10764;50.850;2.904;2023-07-30T04:35:28;24.80;57.80
21214;DHT22;10764;50.850;2.904;2023-07-30T04:37:55;23.80;57.20
21214;DHT22;10764;50.850;2.904;2023-07-30T04:40:23;23.40;57.10
21214;DHT22;10764;50.850;2.904;2023-07-30T04:42:51;23.60;57.10
21214;DHT22;10764;50.850;2.904;2023-07-30T04:45:19;24.30;57.50
21214;DHT22;10764;50.850;2.904;2023-07-30T04:47:49;24.40;57.60
21214;DHT22;10764;50.850;2.904;2023-07-30T04:50:16;23.50;57.40
21214;DHT22;10764;50.850;2.904;2023-07-30T04:52:42;23.40;57.30
21214;DHT22;10764;50.850;2.904;2023-07-30T04:55:12;23.60;57.30
21214;DHT22;10764;50.850;2.904;2023-07-30T04:57:39;23.60;57.70
21214;DHT22;10764;50.850;2.904;2023-07-30T05:00:06;24.60;57.90
21214;DHT22;10764;50.850;2.904;2023-07-30T05:02:34;23.50;57.70
21214;DHT22;10764;50.850;2.904;2023-07-30T05:05:01;23.50;57.70
21214;DHT22;10764;50.850;2.904;2023-07-30T05:07:28;23.40;57.60
21214;DHT22;10764;50.850;2.904;2023-07-30T05:09:54;23.60;57.60
21214;DHT22;10764;50.850;2.904;2023-07-30T05:12:22;23.60;57.60
21214;DHT22;10764;50.850;2.904;2023-07-30T05:14:48;23.50;57.40
21214;DHT22;10764;50.850;2.904;2023-07-30T05:17:15;23.70;57.60
21214;DHT22;10764;50.850;2.904;2023-07-30T05:19:43;23.60;57.60
21214;DHT22;10764;50.850;2.904;2023-07-30T05:22:10;23.80;57.70
21214;DHT22;10764;50.850;2.904;2023-07-30T05:24:37;24.50;58.10
21214;DHT22;10764;50.850;2.904;2023-07-30T05:27:04;23.70;57.90
21214;DHT22;10764;50.850;2.904;2023-07-30T05:29:31;23.20;57.40
21214;DHT22;10764;50.850;2.904;2023-07-30T05:31:59;23.60;57.60
21214;DHT22;10764;50.850;2.904;2023-07-30T05:34:26;23.60;57.70
21214;DHT22;10764;50.850;2.904;2023-07-30T05:36:54;23.50;57.70
21214;DHT22;10764;50.850;2.904;2023-07-30T05:39:21;23.60;57.80
21214;DHT22;10764;50.850;2.904;2023-07-30T05:41:48;23.50;57.40
21214;DHT22;10764;50.850;2.904;2023-07-30T05:44:14;23.50;57.70
21214;DHT22;10764;50.850;2.904;2023-07-30T05:46:41;23.40;57.80
21214;DHT22;10764;50.850;2.904;2023-07-30T05:49:09;23.90;58.00
21214;DHT22;10764;50.850;2.904;2023-07-30T05:51:37;24.20;58.20
21214;DHT22;10764;50.850;2.904;2023-07-30T05:54:04;23.60;57.90
21214;DHT22;10764;50.850;2.904;2023-07-30T05:56:31;24.20;58.10
21214;DHT22;10764;50.850;2.904;2023-07-30T05:58:58;23.40;58.00
21214;DHT22;10764;50.850;2.904;2023-07-30T06:01:25;23.90;58.20
21214;DHT22;10764;50.850;2.904;2023-07-30T06:03:53;23.90;57.90
21214;DHT22;10764;50.850;2.904;2023-07-30T06:06:21;24.70;58.40
21214;DHT22;10764;50.850;2.904;2023-07-30T06:08:54;24.00;57.80
21214;DHT22;10764;50.850;2.904;2023-07-30T06:11:22;23.60;57.30
21214;DHT22;10764;50.850;2.904;2023-07-30T06:13:48;23.60;57.50
21214;DHT22;10764;50.850;2.904;2023-07-30T06:16:18;23.70;57.60
21214;DHT22;10764;50.850;2.904;2023-07-30T06:18:47;24.80;57.90
21214;DHT22;10764;50.850;2.904;2023-07-30T06:21:14;23.80;58.80
21214;DHT22;10764;50.850;2.904;2023-07-30T06:23:41;24.50;58.10
21214;DHT22;10764;50.850;2.904;2023-07-30T06:26:08;23.80;57.30
21214;DHT22;10764;50.850;2.904;2023-07-30T06:28:35;24.80;57.90
21214;DHT22;10764;50.850;2.904;2023-07-30T06:31:02;23.90;57.60
21214;DHT22;10764;50.850;2.904;2023-07-30T06:33:29;23.90;57.60
21214;DHT22;10764;50.850;2.904;2023-07-30T06:35:59;23.70;57.50
21214;DHT22;10764;50.850;2.904;2023-07-30T06:38:25;24.80;58.40
21214;DHT22;10764;50.850;2.904;2023-07-30T06:40:52;24.10;58.50
21214;DHT22;10764;50.850;2.904;2023-07-30T06:43:19;23.50;58.60
21214;DHT22;10764;50.850;2.904;2023-07-30T06:45:46;23.90;58.90
21214;DHT22;10764;50.850;2.904;2023-07-30T06:48:13;23.50;58.90
21214;DHT22;10764;50.850;2.904;2023-07-30T06:50:42;23.40;59.50
21214;DHT22;10764;50.850;2.904;2023-07-30T06:53:08;24.30;61.20
21214;DHT22;10764;50.850;2.904;2023-07-30T06:55:35;22.90;60.60
21214;DHT22;10764;50.850;2.904;2023-07-30T06:58:02;23.30;61.30
21214;DHT22;10764;50.850;2.904;2023-07-30T07:00:29;23.20;60.50
21214;DHT22;10764;50.850;2.904;2023-07-30T07:02:56;22.90;60.00
21214;DHT22;10764;50.850;2.904;2023-07-30T07:05:23;23.60;60.10
21214;DHT22;10764;50.850;2.904;2023-07-30T07:07:50;23.00;59.50
21214;DHT22;10764;50.850;2.904;2023-07-30T07:10:16;23.10;59.40
21214;DHT22;10764;50.850;2.904;2023-07-30T07:12:43;22.50;59.40
21214;DHT22;10764;50.850;2.904;2023-07-30T07:15:10;22.70;60.80
21214;DHT22;10764;50.850;2.904;2023-07-30T07:17:37;22.80;59.80
21214;DHT22;10764;50.850;2.904;2023-07-30T07:20:04;23.10;59.90
21214;DHT22;10764;50.850;2.904;2023-07-30T07:22:34;23.10;59.10
21214;DHT22;10764;50.850;2.904;2023-07-30T07:25:01;23.10;59.90
21214;DHT22;10764;50.850;2.904;2023-07-30T07:27:28;23.00;61.20
21214;DHT22;10764;50.850;2.904;2023-07-30T07:29:55;22.90;61.10
21214;DHT22;10764;50.850;2.904;2023-07-30T07:32:22;23.10;60.70
21214;DHT22;10764;50.850;2.904;2023-07-30T07:34:49;22.80;60.70
21214;DHT22;10764;50.850;2.904;2023-07-30T07:37:17;25.20;60.20
21214;DHT22;10764;50.850;2.904;2023-07-30T07:39:45;23.50;61.30
21214;DHT22;10764;50.850;2.904;2023-07-30T07:42:12;20.80;60.10
21214;DHT22;10764;50.850;2.904;2023-07-30T07:44:39;23.00;61.10
21214;DHT22;10764;50.850;2.904;2023-07-30T07:47:06;22.50;60.20
21214;DHT22;10764;50.850;2.904;2023-07-30T07:49:33;23.20;61.20
21214;DHT22;10764;50.850;2.904;2023-07-30T07:52:00;22.20;58.90
21214;DHT22;10764;50.850;2.904;2023-07-30T07:54:27;22.90;59.10
21214;DHT22;10764;50.850;2.904;2023-07-30T07:56:53;22.70;59.80
21214;DHT22;10764;50.850;2.904;2023-07-30T07:59:20;23.00;61.40
21214;DHT22;10764;50.850;2.904;2023-07-30T08:01:47;22.70;61.30
21214;DHT22;10764;50.850;2.904;2023-07-30T08:04:14;22.40;60.60
21214;DHT22;10764;50.850;2.904;2023-07-30T08:06:41;23.20;59.20
21214;DHT22;10764;50.850;2.904;2023-07-30T08:09:08;22.70;59.00
21214;DHT22;10764;50.850;2.904;2023-07-30T08:11:36;22.00;59.90
21214;DHT22;10764;50.850;2.904;2023-07-30T08:14:06;22.90;60.00
21214;DHT22;10764;50.850;2.904;2023-07-30T08:16:33;23.60;59.60
21214;DHT22;10764;50.850;2.904;2023-07-30T08:19:01;22.30;60.90
21214;DHT22;10764;50.850;2.904;2023-07-30T08:21:27;22.90;60.50
21214;DHT22;10764;50.850;2.904;2023-07-30T08:23:54;24.00;61.20
21214;DHT22;10764;50.850;2.904;2023-07-30T08:26:21;23.40;60.10
21214;DHT22;10764;50.850;2.904;2023-07-30T08:28:48;22.50;61.20
21214;DHT22;10764;50.850;2.904;2023-07-30T08:31:15;22.00;60.10
21214;DHT22;10764;50.850;2.904;2023-07-30T08:33:42;22.10;59.90
21214;DHT22;10764;50.850;2.904;2023-07-30T08:36:08;24.30;61.20
21214;DHT22;10764;50.850;2.904;2023-07-30T08:38:35;22.70;62.10
21214;DHT22;10764;50.850;2.904;2023-07-30T08:41:02;22.90;61.30
21214;DHT22;10764;50.850;2.904;2023-07-30T08:43:29;22.80;59.10
21214;DHT22;10764;50.850;2.904;2023-07-30T08:45:56;22.50;58.60
21214;DHT22;10764;50.850;2.904;2023-07-30T08:48:25;22.00;59.60
21214;DHT22;10764;50.850;2.904;2023-07-30T08:50:52;22.70;59.10
21214;DHT22;10764;50.850;2.904;2023-07-30T08:53:25;22.70;57.10
21214;DHT22;10764;50.850;2.904;2023-07-30T08:55:56;22.60;57.00
21214;DHT22;10764;50.850;2.904;2023-07-30T08:58:25;22.60;57.10
21214;DHT22;10764;50.850;2.904;2023-07-30T09:00:55;22.80;58.10
21214;DHT22;10764;50.850;2.904;2023-07-30T09:03:24;23.70;56.80
21214;DHT22;10764;50.850;2.904;2023-07-30T09:05:53;22.30;55.10
21214;DHT22;10764;50.850;2.904;2023-07-30T09:08:21;23.00;56.60
21214;DHT22;10764;50.850;2.904;2023-07-30T09:10:49;22.50;55.30
21214;DHT22;10764;50.850;2.904;2023-07-30T09:13:23;23.00;55.70
21214;DHT22;10764;50.850;2.904;2023-07-30T09:15:50;23.40;54.70
21214;DHT22;10764;50.850;2.904;2023-07-30T09:18:17;22.80;55.40
21214;DHT22;10764;50.850;2.904;2023-07-30T09:20:45;22.70;55.10
21214;DHT22;10764;50.850;2.904;2023-07-30T09:23:12;22.10;53.90
21214;DHT22;10764;50.850;2.904;2023-07-30T09:25:39;23.10;54.20
21214;DHT22;10764;50.850;2.904;2023-07-30T09:28:06;23.00;54.40
21214;DHT22;10764;50.850;2.904;2023-07-30T09:30:35;23.30;54.30
21214;DHT22;10764;50.850;2.904;2023-07-30T09:33:03;22.80;55.70
21214;DHT22;10764;50.850;2.904;2023-07-30T09:35:33;22.20;54.00
21214;DHT22;10764;50.850;2.904;2023-07-30T09:38:03;22.50;54.80
21214;DHT22;10764;50.850;2.904;2023-07-30T09:40:34;22.60;54.90
21214;DHT22;10764;50.850;2.904;2023-07-30T09:43:05;22.20;54.10
21214;DHT22;10764;50.850;2.904;2023-07-30T09:45:36;22.60;55.00
21214;DHT22;10764;50.850;2.904;2023-07-30T09:48:05;22.80;54.70
21214;DHT22;10764;50.850;2.904;2023-07-30T09:50:37;22.80;54.80
21214;DHT22;10764;50.850;2.904;2023-07-30T09:53:04;22.20;53.90
21214;DHT22;10764;50.850;2.904;2023-07-30T09:55:31;22.20;54.50
21214;DHT22;10764;50.850;2.904;2023-07-30T09:57:58;22.10;53.90
21214;DHT22;10764;50.850;2.904;2023-07-30T10:00:27;22.20;53.90
21214;DHT22;10764;50.850;2.904;2023-07-30T10:02:58;22.20;54.20
21214;DHT22;10764;50.850;2.904;2023-07-30T10:05:29;22.10;53.30
21214;DHT22;10764;50.850;2.904;2023-07-30T10:08:00;22.50;52.70
21214;DHT22;10764;50.850;2.904;2023-07-30T10:10:29;22.10;52.90
21214;DHT22;10764;50.850;2.904;2023-07-30T10:13:00;22.90;52.90
21214;DHT22;10764;50.850;2.904;2023-07-30T10:15:28;22.80;53.10
21214;DHT22;10764;50.850;2.904;2023-07-30T10:17:57;21.50;54.40
21214;DHT22;10764;50.850;2.904;2023-07-30T10:20:28;23.10;53.20
21214;DHT22;10764;50.850;2.904;2023-07-30T10:23:00;22.90;52.70
21214;DHT22;10764;50.850;2.904;2023-07-30T10:28:09;23.00;52.80
21214;DHT22;10764;50.850;2.904;2023-07-30T10:30:36;22.80;52.10
21214;DHT22;10764;50.850;2.904;2023-07-30T10:33:04;23.80;52.70
21214;DHT22;10764;50.850;2.904;2023-07-30T10:35:42;25.90;54.30
21214;DHT22;10764;50.850;2.904;2023-07-30T10:38:18;20.80;50.10
21214;DHT22;10764;50.850;2.904;2023-07-30T10:41:12;23.00;52.30
21214;DHT22;10764;50.850;2.904;2023-07-30T10:43:49;22.70;51.10
21214;DHT22;10764;50.850;2.904;2023-07-30T10:46:18;23.00;52.10
21214;DHT22;10764;50.850;2.904;2023-07-30T10:48:47;22.90;51.90
21214;DHT22;10764;50.850;2.904;2023-07-30T10:51:16;24.80;53.50
21214;DHT22;10764;50.850;2.904;2023-07-30T10:53:44;22.40;51.00
21214;DHT22;10764;50.850;2.904;2023-07-30T10:56:12;22.40;51.00
21214;DHT22;10764;50.850;2.904;2023-07-30T10:58:40;23.00;51.40
21214;DHT22;10764;50.850;2.904;2023-07-30T11:01:08;22.90;51.50
21214;DHT22;10764;50.850;2.904;2023-07-30T11:03:36;22.60;51.40
21214;DHT22;10764;50.850;2.904;2023-07-30T11:06:05;22.90;52.10
21214;DHT22;10764;50.850;2.904;2023-07-30T11:08:39;22.80;51.00
21214;DHT22;10764;50.850;2.904;2023-07-30T11:11:08;22.80;50.70
21214;DHT22;10764;50.850;2.904;2023-07-30T11:13:40;25.50;51.70
21214;DHT22;10764;50.850;2.904;2023-07-30T11:16:08;22.70;50.60
21214;DHT22;10764;50.850;2.904;2023-07-30T11:18:37;22.80;50.30
21214;DHT22;10764;50.850;2.904;2023-07-30T11:21:12;22.90;50.50
21214;DHT22;10764;50.850;2.904;2023-07-30T11:23:40;23.10;50.10
21214;DHT22;10764;50.850;2.904;2023-07-30T11:26:13;26.30;53.00
21214;DHT22;10764;50.850;2.904;2023-07-30T11:28:40;22.60;51.20
21214;DHT22;10764;50.850;2.904;2023-07-30T11:31:13;22.50;51.50
21214;DHT22;10764;50.850;2.904;2023-07-30T11:33:42;23.10;50.20
21214;DHT22;10764;50.850;2.904;2023-07-30T11:36:20;23.30;51.30
21214;DHT22;10764;50.850;2.904;2023-07-30T11:38:51;23.30;50.90
21214;DHT22;10764;50.850;2.904;2023-07-30T11:41:23;22.70;50.70
21214;DHT22;10764;50.850;2.904;2023-07-30T11:43:51;23.00;50.70
21214;DHT22;10764;50.850;2.904;2023-07-30T11:46:18;22.90;51.80
21214;DHT22;10764;50.850;2.904;2023-07-30T11:48:51;23.00;50.60
21214;DHT22;10764;50.850;2.904;2023-07-30T11:53:58;23.10;50.30
21214;DHT22;10764;50.850;2.904;2023-07-30T11:56:29;23.10;50.40
21214;DHT22;10764;50.850;2.904;2023-07-30T11:59:01;23.00;50.50
21214;DHT22;10764;50.850;2.904;2023-07-30T12:01:31;22.90;50.20
21214;DHT22;10764;50.850;2.904;2023-07-30T12:04:02;23.00;50.10
21214;DHT22;10764;50.850;2.904;2023-07-30T12:06:44;23.40;51.00
21214;DHT22;10764;50.850;2.904;2023-07-30T12:09:16;23.40;51.30
21214;DHT22;10764;50.850;2.904;2023-07-30T12:11:51;23.00;51.20
21214;DHT22;10764;50.850;2.904;2023-07-30T12:14:21;23.10;49.80
21214;DHT22;10764;50.850;2.904;2023-07-30T12:16:48;25.60;52.00
21214;DHT22;10764;50.850;2.904;2023-07-30T12:19:15;23.30;53.00
21214;DHT22;10764;50.850;2.904;2023-07-30T12:21:41;22.90;52.60
21214;DHT22;10764;50.850;2.904;2023-07-30T12:24:09;23.10;51.00
21214;DHT22;10764;50.850;2.904;2023-07-30T12:26:36;22.90;52.20
21214;DHT22;10764;50.850;2.904;2023-07-30T12:29:03;23.40;53.10
21214;DHT22;10764;50.850;2.904;2023-07-30T12:31:29;23.00;52.80
21214;DHT22;10764;50.850;2.904;2023-07-30T12:33:56;23.20;53.30
21214;DHT22;10764;50.850;2.904;2023-07-30T12:36:23;23.30;53.70
21214;DHT22;10764;50.850;2.904;2023-07-30T12:38:52;23.20;51.70
21214;DHT22;10764;50.850;2.904;2023-07-30T12:41:20;22.80;51.20
21214;DHT22;10764;50.850;2.904;2023-07-30T12:43:54;23.70;51.30
21214;DHT22;10764;50.850;2.904;2023-07-30T12:46:23;23.40;51.70
21214;DHT22;10764;50.850;2.904;2023-07-30T12:48:51;23.10;52.10
21214;DHT22;10764;50.850;2.904;2023-07-30T12:51:18;23.40;52.40
21214;DHT22;10764;50.850;2.904;2023-07-30T12:53:45;23.00;52.30
21214;DHT22;10764;50.850;2.904;2023-07-30T12:56:11;22.80;52.10
21214;DHT22;10764;50.850;2.904;2023-07-30T12:58:39;23.50;52.30
21214;DHT22;10764;50.850;2.904;2023-07-30T13:01:07;23.40;52.30
21214;DHT22;10764;50.850;2.904;2023-07-30T13:03:34;23.60;52.40
21214;DHT22;10764;50.850;2.904;2023-07-30T13:06:02;24.40;52.50
21214;DHT22;10764;50.850;2.904;2023-07-30T13:08:29;22.90;51.60
21214;DHT22;10764;50.850;2.904;2023-07-30T13:10:56;23.00;51.80
21214;DHT22;10764;50.850;2.904;2023-07-30T13:13:22;23.40;52.20
21214;DHT22;10764;50.850;2.904;2023-07-30T13:15:50;23.20;52.20
21214;DHT22;10764;50.850;2.904;2023-07-30T13:18:17;23.20;52.50
21214;DHT22;10764;50.850;2.904;2023-07-30T13:20:43;22.60;52.40
21214;DHT22;10764;50.850;2.904;2023-07-30T13:23:10;23.40;52.90
21214;DHT22;10764;50.850;2.904;2023-07-30T13:25:37;23.20;52.80
21214;DHT22;10764;50.850;2.904;2023-07-30T13:28:05;22.90;53.10
21214;DHT22;10764;50.850;2.904;2023-07-30T13:30:32;23.10;53.40
21214;DHT22;10764;50.850;2.904;2023-07-30T13:32:58;23.00;53.40
21214;DHT22;10764;50.850;2.904;2023-07-30T13:35:25;20.30;52.30
21214;DHT22;10764;50.850;2.904;2023-07-30T13:37:52;23.60;54.30
21214;DHT22;10764;50.850;2.904;2023-07-30T13:40:19;23.20;54.70
21214;DHT22;10764;50.850;2.904;2023-07-30T13:42:46;22.50;54.90
21214;DHT22;10764;50.850;2.904;2023-07-30T13:45:13;22.80;55.60
21214;DHT22;10764;50.850;2.904;2023-07-30T13:47:39;23.00;56.10
21214;DHT22;10764;50.850;2.904;2023-07-30T13:50:08;23.50;56.30
21214;DHT22;10764;50.850;2.904;2023-07-30T13:52:35;22.50;56.10
21214;DHT22;10764;50.850;2.904;2023-07-30T13:55:02;23.10;56.40
21214;DHT22;10764;50.850;2.904;2023-07-30T13:57:29;22.80;57.10
21214;DHT22;10764;50.850;2.904;2023-07-30T13:59:56;22.80;57.80
21214;DHT22;10764;50.850;2.904;2023-07-30T14:02:23;22.80;58.40
21214;DHT22;10764;50.850;2.904;2023-07-30T14:04:50;22.40;58.50
21214;DHT22;10764;50.850;2.904;2023-07-30T14:07:17;23.60;59.30
21214;DHT22;10764;50.850;2.904;2023-07-30T14:09:44;22.90;59.30
21214;DHT22;10764;50.850;2.904;2023-07-30T14:12:10;23.00;59.40
21214;DHT22;10764;50.850;2.904;2023-07-30T14:14:37;22.70;59.70
21214;DHT22;10764;50.850;2.904;2023-07-30T14:17:04;22.30;59.40
21214;DHT22;10764;50.850;2.904;2023-07-30T14:19:33;22.70;59.50
21214;DHT22;10764;50.850;2.904;2023-07-30T14:22:01;22.90;59.70
21214;DHT22;10764;50.850;2.904;2023-07-30T14:24:28;22.60;59.60
21214;DHT22;10764;50.850;2.904;2023-07-30T14:26:55;22.70;59.70
21214;DHT22;10764;50.850;2.904;2023-07-30T14:29:22;22.40;59.80
21214;DHT22;10764;50.850;2.904;2023-07-30T14:31:49;22.50;59.80
21214;DHT22;10764;50.850;2.904;2023-07-30T14:34:16;22.90;60.00
21214;DHT22;10764;50.850;2.904;2023-07-30T14:36:43;22.70;59.80
21214;DHT22;10764;50.850;2.904;2023-07-30T14:39:09;22.70;59.60
21214;DHT22;10764;50.850;2.904;2023-07-30T14:41:37;22.90;59.50
21214;DHT22;10764;50.850;2.904;2023-07-30T14:44:05;22.80;59.50
21214;DHT22;10764;50.850;2.904;2023-07-30T14:46:32;23.20;60.00
21214;DHT22;10764;50.850;2.904;2023-07-30T14:48:59;22.30;59.50
21214;DHT22;10764;50.850;2.904;2023-07-30T14:51:25;22.30;59.60
21214;DHT22;10764;50.850;2.904;2023-07-30T14:53:52;22.50;59.80
21214;DHT22;10764;50.850;2.904;2023-07-30T14:56:19;22.80;60.10
21214;DHT22;10764;50.850;2.904;2023-07-30T14:58:46;22.30;60.10
21214;DHT22;10764;50.850;2.904;2023-07-30T15:01:13;22.30;60.20
21214;DHT22;10764;50.850;2.904;2023-07-30T15:03:39;22.70;60.80
21214;DHT22;10764;50.850;2.904;2023-07-30T15:06:06;23.50;61.50
21214;DHT22;10764;50.850;2.904;2023-07-30T15:08:34;22.30;61.20
21214;DHT22;10764;50.850;2.904;2023-07-30T15:11:01;23.00;61.90
21214;DHT22;10764;50.850;2.904;2023-07-30T15:13:27;23.30;62.80
21214;DHT22;10764;50.850;2.904;2023-07-30T15:15:54;22.70;62.70
21214;DHT22;10764;50.850;2.904;2023-07-30T15:18:21;23.00;63.20
21214;DHT22;10764;50.850;2.904;2023-07-30T15:20:48;22.30;63.60
21214;DHT22;10764;50.850;2.904;2023-07-30T15:23:15;22.90;65.10
21214;DHT22;10764;50.850;2.904;2023-07-30T15:25:43;22.40;66.10
21214;DHT22;10764;50.850;2.904;2023-07-30T15:28:10;23.20;65.90
21214;DHT22;10764;50.850;2.904;2023-07-30T15:30:37;21.70;64.80
21214;DHT22;10764;50.850;2.904;2023-07-30T15:33:08;22.40;65.00
21214;DHT22;10764;50.850;2.904;2023-07-30T15:35:35;22.20;65.60
21214;DHT22;10764;50.850;2.904;2023-07-30T15:38:05;22.10;65.50